sensor_id;sensor_type;location;lat;lon;timestamp;P1;durP1;ratioP1;P2;durP2;ratioP2
20166;SDS011;10243;49.118;8.508;2023-03-14T00:00:15;2.20;;;1.30;;
20166;SDS011;10243;49.118;8.508;2023-03-14T00:00:36;2.40;;;1.35;;
20166;SDS011;10243;49.118;8.508;2023-03-14T00:00:56;1.60;;;1.03;;
20166;SDS011;10243;49.118;8.508;2023-03-14T00:01:18;2.00;;;1.10;;
20166;SDS011;10243;49.118;8.508;2023-03-14T00:01:40;1.60;;;1.20;;
20166;SDS011;10243;49.118;8.508;2023-03-14T00:02:09;1.88;;;1.00;;
20166;SDS011;10243;49.118;8.508;2023-03-14T00:02:32;1.42;;;1.00;;
20166;SDS011;10243;49.118;8.508;2023-03-14T00:02:53;2.50;;;1.00;;
20166;SDS011;10243;49.118;8.508;2023-03-14T00:03:13;2.38;;;1.05;;
20166;SDS011;10243;49.118;8.508;2023-03-14T00:03:35;2.00;;;1.00;;
20166;SDS011;10243;49.118;8.508;2023-03-14T00:03:55;2.17;;;0.90;;
20166;SDS011;10243;49.118;8.508;2023-03-14T00:04:16;1.37;;;0.90;;
20166;SDS011;10243;49.118;8.508;2023-03-14T00:04:36;1.63;;;0.93;;
20166;SDS011;10243;49.118;8.508;2023-03-14T00:04:58;3.53;;;0.90;;
20166;SDS011;10243;49.118;8.508;2023-03-14T00:05:18;2.00;;;0.80;;
20166;SDS011;10243;49.118;8.508;2023-03-14T00:05:39;2.00;;;0.90;;
20166;SDS011;10243;49.118;8.508;2023-03-14T00:06:01;2.00;;;0.90;;
20166;SDS011;10243;49.118;8.508;2023-03-14T00:06:21;2.75;;;1.00;;
20166;SDS011;10243;49.118;8.508;2023-03-14T00:06:43;2.65;;;0.95;;
20166;SDS011;10243;49.118;8.508;2023-03-14T00:07:03;1.75;;;0.88;;
20166;SDS011;10243;49.118;8.508;2023-03-14T00:07:24;1.73;;;0.90;;
20166;SDS011;10243;49.118;8.508;2023-03-14T00:07:44;1.27;;;0.90;;
20166;SDS011;10243;49.118;8.508;2023-03-14T00:08:06;1.85;;;0.80;;
20166;SDS011;10243;49.118;8.508;2023-03-14T00:08:26;1.27;;;0.90;;
20166;SDS011;10243;49.118;8.508;2023-03-14T00:08:47;1.13;;;0.83;;
20166;SDS011;10243;49.118;8.508;2023-03-14T00:09:07;1.70;;;0.90;;
20166;SDS011;10243;49.118;8.508;2023-03-14T00:09:28;1.45;;;0.88;;
20166;SDS011;10243;49.118;8.508;2023-03-14T00:09:50;1.10;;;1.00;;
20166;SDS011;10243;49.118;8.508;2023-03-14T00:10:11;1.48;;;1.02;;
20166;SDS011;10243;49.118;8.508;2023-03-14T00:10:32;1.77;;;0.95;;
20166;SDS011;10243;49.118;8.508;2023-03-14T00:10:53;1.35;;;0.80;;
20166;SDS011;10243;49.118;8.508;2023-03-14T00:11:14;1.27;;;0.80;;
20166;SDS011;10243;49.118;8.508;2023-03-14T00:11:35;1.40;;;0.88;;
20166;SDS011;10243;49.118;8.508;2023-03-14T00:11:56;1.70;;;1.00;;
20166;SDS011;10243;49.118;8.508;2023-03-14T00:12:16;1.13;;;0.90;;
20166;SDS011;10243;49.118;8.508;2023-03-14T00:12:38;0.98;;;0.88;;
20166;SDS011;10243;49.118;8.508;2023-03-14T00:12:58;2.30;;;1.00;;
20166;SDS011;10243;49.118;8.508;2023-03-14T00:13:18;1.30;;;0.90;;
20166;SDS011;10243;49.118;8.508;2023-03-14T00:13:39;1.00;;;0.70;;
20166;SDS011;10243;49.118;8.508;2023-03-14T00:14:01;1.05;;;0.80;;
20166;SDS011;10243;49.118;8.508;2023-03-14T00:14:23;0.73;;;0.70;;
20166;SDS011;10243;49.118;8.508;2023-03-14T00:14:43;1.10;;;0.82;;
20166;SDS011;10243;49.118;8.508;2023-03-14T00:15:04;1.80;;;0.97;;
20166;SDS011;10243;49.118;8.508;2023-03-14T00:15:26;2.20;;;0.90;;
20166;SDS011;10243;49.118;8.508;2023-03-14T00:15:48;1.83;;;0.90;;
20166;SDS011;10243;49.118;8.508;2023-03-14T00:16:09;1.63;;;1.00;;
20166;SDS011;10243;49.118;8.508;2023-03-14T00:16:29;1.20;;;1.00;;
20166;SDS011;10243;49.118;8.508;2023-03-14T00:16:50;1.23;;;0.97;;
20166;SDS011;10243;49.118;8.508;2023-03-14T00:17:11;1.83;;;0.95;;
20166;SDS011;10243;49.118;8.508;2023-03-14T00:17:34;2.70;;;1.00;;
20166;SDS011;10243;49.118;8.508;2023-03-14T00:17:54;3.00;;;1.00;;
20166;SDS011;10243;49.118;8.508;2023-03-14T00:18:15;2.15;;;0.90;;
20166;SDS011;10243;49.118;8.508;2023-03-14T00:18:36;2.05;;;0.80;;
20166;SDS011;10243;49.118;8.508;2023-03-14T00:18:57;2.13;;;0.90;;
20166;SDS011;10243;49.118;8.508;2023-03-14T00:19:18;2.25;;;0.90;;
20166;SDS011;10243;49.118;8.508;2023-03-14T00:19:38;1.60;;;0.90;;
20166;SDS011;10243;49.118;8.508;2023-03-14T00:19:59;1.83;;;0.88;;
20166;SDS011;10243;49.118;8.508;2023-03-14T00:20:28;0.98;;;0.90;;
20166;SDS011;10243;49.118;8.508;2023-03-14T00:20:48;2.47;;;1.00;;
20166;SDS011;10243;49.118;8.508;2023-03-14T00:21:10;2.70;;;1.00;;
20166;SDS011;10243;49.118;8.508;2023-03-14T00:21:30;1.15;;;0.80;;
20166;SDS011;10243;49.118;8.508;2023-03-14T00:21:51;3.53;;;0.80;;
20166;SDS011;10243;49.118;8.508;2023-03-14T00:22:11;1.47;;;0.83;;
20166;SDS011;10243;49.118;8.508;2023-03-14T00:22:32;2.13;;;0.87;;
20166;SDS011;10243;49.118;8.508;2023-03-14T00:22:53;1.80;;;0.80;;
20166;SDS011;10243;49.118;8.508;2023-03-14T00:23:13;1.17;;;0.80;;
20166;SDS011;10243;49.118;8.508;2023-03-14T00:23:34;2.00;;;0.98;;
20166;SDS011;10243;49.118;8.508;2023-03-14T00:23:55;2.30;;;0.93;;
20166;SDS011;10243;49.118;8.508;2023-03-14T00:24:16;1.33;;;0.90;;
20166;SDS011;10243;49.118;8.508;2023-03-14T00:24:37;2.67;;;0.90;;
20166;SDS011;10243;49.118;8.508;2023-03-14T00:24:57;1.33;;;1.00;;
20166;SDS011;10243;49.118;8.508;2023-03-14T00:25:18;1.60;;;1.00;;
20166;SDS011;10243;49.118;8.508;2023-03-14T00:25:38;1.33;;;0.90;;
20166;SDS011;10243;49.118;8.508;2023-03-14T00:26:00;2.55;;;0.88;;
20166;SDS011;10243;49.118;8.508;2023-03-14T00:26:20;1.98;;;0.90;;
20166;SDS011;10243;49.118;8.508;2023-03-14T00:26:41;1.35;;;0.90;;
20166;SDS011;10243;49.118;8.508;2023-03-14T00:27:01;1.23;;;0.80;;
20166;SDS011;10243;49.118;8.508;2023-03-14T00:27:23;1.25;;;1.00;;
20166;SDS011;10243;49.118;8.508;2023-03-14T00:27:43;1.00;;;0.88;;
20166;SDS011;10243;49.118;8.508;2023-03-14T00:28:06;0.70;;;0.70;;
20166;SDS011;10243;49.118;8.508;2023-03-14T00:28:27;1.50;;;0.80;;
20166;SDS011;10243;49.118;8.508;2023-03-14T00:28:51;1.95;;;0.80;;
20166;SDS011;10243;49.118;8.508;2023-03-14T00:29:13;1.35;;;0.82;;
20166;SDS011;10243;49.118;8.508;2023-03-14T00:29:33;1.25;;;0.82;;
20166;SDS011;10243;49.118;8.508;2023-03-14T00:29:55;0.85;;;0.85;;
20166;SDS011;10243;49.118;8.508;2023-03-14T00:30:16;1.25;;;0.90;;
20166;SDS011;10243;49.118;8.508;2023-03-14T00:30:37;1.80;;;0.73;;
20166;SDS011;10243;49.118;8.508;2023-03-14T00:30:57;2.08;;;0.80;;
20166;SDS011;10243;49.118;8.508;2023-03-14T00:31:19;1.67;;;0.80;;
20166;SDS011;10243;49.118;8.508;2023-03-14T00:31:39;0.93;;;0.73;;
20166;SDS011;10243;49.118;8.508;2023-03-14T00:32:03;1.45;;;0.88;;
20166;SDS011;10243;49.118;8.508;2023-03-14T00:32:23;1.17;;;0.90;;
20166;SDS011;10243;49.118;8.508;2023-03-14T00:32:45;1.30;;;0.88;;
20166;SDS011;10243;49.118;8.508;2023-03-14T00:33:05;1.60;;;0.90;;
20166;SDS011;10243;49.118;8.508;2023-03-14T00:33:25;0.90;;;0.90;;
20166;SDS011;10243;49.118;8.508;2023-03-14T00:33:46;1.00;;;0.90;;
20166;SDS011;10243;49.118;8.508;2023-03-14T00:34:07;0.77;;;0.77;;
20166;SDS011;10243;49.118;8.508;2023-03-14T00:34:28;2.33;;;0.82;;
20166;SDS011;10243;49.118;8.508;2023-03-14T00:34:49;2.00;;;0.80;;
20166;SDS011;10243;49.118;8.508;2023-03-14T00:35:09;1.33;;;0.82;;
20166;SDS011;10243;49.118;8.508;2023-03-14T00:35:29;1.20;;;0.87;;
20166;SDS011;10243;49.118;8.508;2023-03-14T00:35:54;0.80;;;0.70;;
20166;SDS011;10243;49.118;8.508;2023-03-14T00:36:15;1.40;;;0.90;;
20166;SDS011;10243;49.118;8.508;2023-03-14T00:36:36;1.25;;;0.80;;
20166;SDS011;10243;49.118;8.508;2023-03-14T00:36:56;1.10;;;0.80;;
20166;SDS011;10243;49.118;8.508;2023-03-14T00:37:18;1.40;;;0.90;;
20166;SDS011;10243;49.118;8.508;2023-03-14T00:37:38;1.70;;;0.80;;
20166;SDS011;10243;49.118;8.508;2023-03-14T00:37:59;1.92;;;0.90;;
20166;SDS011;10243;49.118;8.508;2023-03-14T00:38:20;0.90;;;0.80;;
20166;SDS011;10243;49.118;8.508;2023-03-14T00:38:41;1.08;;;0.90;;
20166;SDS011;10243;49.118;8.508;2023-03-14T00:39:02;1.40;;;0.80;;
20166;SDS011;10243;49.118;8.508;2023-03-14T00:39:25;1.25;;;1.00;;
20166;SDS011;10243;49.118;8.508;2023-03-14T00:39:45;1.03;;;0.80;;
20166;SDS011;10243;49.118;8.508;2023-03-14T00:40:08;1.02;;;0.70;;
20166;SDS011;10243;49.118;8.508;2023-03-14T00:40:29;1.30;;;0.80;;
20166;SDS011;10243;49.118;8.508;2023-03-14T00:40:49;1.65;;;0.80;;
20166;SDS011;10243;49.118;8.508;2023-03-14T00:41:11;1.52;;;0.70;;
20166;SDS011;10243;49.118;8.508;2023-03-14T00:41:32;1.90;;;0.80;;
20166;SDS011;10243;49.118;8.508;2023-03-14T00:41:54;0.90;;;0.73;;
20166;SDS011;10243;49.118;8.508;2023-03-14T00:42:16;1.17;;;0.80;;
20166;SDS011;10243;49.118;8.508;2023-03-14T00:42:36;0.90;;;0.87;;
20166;SDS011;10243;49.118;8.508;2023-03-14T00:42:56;0.98;;;0.88;;
20166;SDS011;10243;49.118;8.508;2023-03-14T00:43:20;1.35;;;0.90;;
20166;SDS011;10243;49.118;8.508;2023-03-14T00:43:42;1.52;;;1.00;;
20166;SDS011;10243;49.118;8.508;2023-03-14T00:44:02;1.60;;;1.00;;
20166;SDS011;10243;49.118;8.508;2023-03-14T00:44:24;1.75;;;0.90;;
20166;SDS011;10243;49.118;8.508;2023-03-14T00:44:45;1.15;;;1.00;;
20166;SDS011;10243;49.118;8.508;2023-03-14T00:45:06;0.80;;;0.80;;
20166;SDS011;10243;49.118;8.508;2023-03-14T00:45:28;0.98;;;0.90;;
20166;SDS011;10243;49.118;8.508;2023-03-14T00:45:49;1.40;;;0.80;;
20166;SDS011;10243;49.118;8.508;2023-03-14T00:46:09;1.47;;;0.63;;
20166;SDS011;10243;49.118;8.508;2023-03-14T00:46:31;1.80;;;0.90;;
20166;SDS011;10243;49.118;8.508;2023-03-14T00:46:52;1.08;;;0.80;;
20166;SDS011;10243;49.118;8.508;2023-03-14T00:47:12;0.70;;;0.70;;
20166;SDS011;10243;49.118;8.508;2023-03-14T00:47:33;1.20;;;0.73;;
20166;SDS011;10243;49.118;8.508;2023-03-14T00:47:53;1.10;;;0.70;;
20166;SDS011;10243;49.118;8.508;2023-03-14T00:48:15;1.20;;;0.70;;
20166;SDS011;10243;49.118;8.508;2023-03-14T00:48:35;0.90;;;0.77;;
20166;SDS011;10243;49.118;8.508;2023-03-14T00:48:56;2.15;;;0.90;;
20166;SDS011;10243;49.118;8.508;2023-03-14T00:49:17;2.78;;;0.80;;
20166;SDS011;10243;49.118;8.508;2023-03-14T00:49:38;2.13;;;0.90;;
20166;SDS011;10243;49.118;8.508;2023-03-14T00:49:59;1.80;;;0.80;;
20166;SDS011;10243;49.118;8.508;2023-03-14T00:50:19;1.08;;;0.70;;
20166;SDS011;10243;49.118;8.508;2023-03-14T00:50:39;0.97;;;0.70;;
20166;SDS011;10243;49.118;8.508;2023-03-14T00:51:01;1.92;;;0.70;;
20166;SDS011;10243;49.118;8.508;2023-03-14T00:51:22;2.77;;;0.90;;
20166;SDS011;10243;49.118;8.508;2023-03-14T00:51:43;1.05;;;0.80;;
20166;SDS011;10243;49.118;8.508;2023-03-14T00:52:05;0.82;;;0.80;;
20166;SDS011;10243;49.118;8.508;2023-03-14T00:52:25;1.00;;;0.80;;
20166;SDS011;10243;49.118;8.508;2023-03-14T00:52:45;0.80;;;0.77;;
20166;SDS011;10243;49.118;8.508;2023-03-14T00:53:08;1.90;;;0.80;;
20166;SDS011;10243;49.118;8.508;2023-03-14T00:53:29;0.80;;;0.80;;
20166;SDS011;10243;49.118;8.508;2023-03-14T00:53:49;0.82;;;0.70;;
20166;SDS011;10243;49.118;8.508;2023-03-14T00:54:10;0.85;;;0.80;;
20166;SDS011;10243;49.118;8.508;2023-03-14T00:54:31;0.77;;;0.70;;
20166;SDS011;10243;49.118;8.508;2023-03-14T00:54:52;1.63;;;0.80;;
20166;SDS011;10243;49.118;8.508;2023-03-14T00:55:13;1.08;;;0.70;;
20166;SDS011;10243;49.118;8.508;2023-03-14T00:55:35;0.67;;;0.67;;
20166;SDS011;10243;49.118;8.508;2023-03-14T00:55:56;1.67;;;0.80;;
20166;SDS011;10243;49.118;8.508;2023-03-14T00:56:16;1.13;;;0.90;;
20166;SDS011;10243;49.118;8.508;2023-03-14T00:56:38;0.95;;;0.90;;
20166;SDS011;10243;49.118;8.508;2023-03-14T00:56:58;1.05;;;0.80;;
20166;SDS011;10243;49.118;8.508;2023-03-14T00:57:19;0.87;;;0.70;;
20166;SDS011;10243;49.118;8.508;2023-03-14T00:57:39;0.80;;;0.70;;
20166;SDS011;10243;49.118;8.508;2023-03-14T00:58:00;1.30;;;0.80;;
20166;SDS011;10243;49.118;8.508;2023-03-14T00:58:21;1.63;;;0.80;;
20166;SDS011;10243;49.118;8.508;2023-03-14T00:58:41;1.90;;;0.87;;
20166;SDS011;10243;49.118;8.508;2023-03-14T00:59:02;1.52;;;0.80;;
20166;SDS011;10243;49.118;8.508;2023-03-14T00:59:24;2.47;;;0.70;;
20166;SDS011;10243;49.118;8.508;2023-03-14T00:59:45;4.45;;;0.77;;
20166;SDS011;10243;49.118;8.508;2023-03-14T01:00:06;3.40;;;0.70;;
20166;SDS011;10243;49.118;8.508;2023-03-14T01:00:28;1.77;;;0.82;;
20166;SDS011;10243;49.118;8.508;2023-03-14T01:00:49;1.80;;;0.80;;
20166;SDS011;10243;49.118;8.508;2023-03-14T01:01:13;1.20;;;0.80;;
20166;SDS011;10243;49.118;8.508;2023-03-14T01:01:33;2.20;;;0.90;;
20166;SDS011;10243;49.118;8.508;2023-03-14T01:01:54;1.40;;;0.80;;
20166;SDS011;10243;49.118;8.508;2023-03-14T01:02:15;1.00;;;0.80;;
20166;SDS011;10243;49.118;8.508;2023-03-14T01:02:36;2.00;;;0.90;;
20166;SDS011;10243;49.118;8.508;2023-03-14T01:02:56;1.63;;;0.80;;
20166;SDS011;10243;49.118;8.508;2023-03-14T01:03:17;0.70;;;0.70;;
20166;SDS011;10243;49.118;8.508;2023-03-14T01:03:39;2.20;;;0.80;;
20166;SDS011;10243;49.118;8.508;2023-03-14T01:03:59;1.07;;;0.80;;
20166;SDS011;10243;49.118;8.508;2023-03-14T01:04:19;0.80;;;0.80;;
20166;SDS011;10243;49.118;8.508;2023-03-14T01:04:40;0.80;;;0.80;;
20166;SDS011;10243;49.118;8.508;2023-03-14T01:05:03;0.60;;;0.60;;
20166;SDS011;10243;49.118;8.508;2023-03-14T01:05:24;0.80;;;0.70;;
20166;SDS011;10243;49.118;8.508;2023-03-14T01:05:44;0.70;;;0.60;;
20166;SDS011;10243;49.118;8.508;2023-03-14T01:06:08;1.57;;;0.70;;
20166;SDS011;10243;49.118;8.508;2023-03-14T01:06:29;1.25;;;0.73;;
20166;SDS011;10243;49.118;8.508;2023-03-14T01:06:50;1.70;;;0.80;;
20166;SDS011;10243;49.118;8.508;2023-03-14T01:07:11;1.37;;;0.80;;
20166;SDS011;10243;49.118;8.508;2023-03-14T01:07:33;1.73;;;0.80;;
20166;SDS011;10243;49.118;8.508;2023-03-14T01:07:53;0.90;;;0.70;;
20166;SDS011;10243;49.118;8.508;2023-03-14T01:08:13;0.87;;;0.80;;
20166;SDS011;10243;49.118;8.508;2023-03-14T01:08:35;0.80;;;0.80;;
20166;SDS011;10243;49.118;8.508;2023-03-14T01:08:55;2.05;;;0.80;;
20166;SDS011;10243;49.118;8.508;2023-03-14T01:09:16;1.08;;;0.75;;
20166;SDS011;10243;49.118;8.508;2023-03-14T01:09:37;1.10;;;0.60;;
20166;SDS011;10243;49.118;8.508;2023-03-14T01:09:59;0.90;;;0.60;;
20166;SDS011;10243;49.118;8.508;2023-03-14T01:10:19;2.50;;;0.68;;
20166;SDS011;10243;49.118;8.508;2023-03-14T01:10:40;0.70;;;0.70;;
20166;SDS011;10243;49.118;8.508;2023-03-14T01:11:04;1.65;;;0.70;;
20166;SDS011;10243;49.118;8.508;2023-03-14T01:11:26;0.85;;;0.70;;
20166;SDS011;10243;49.118;8.508;2023-03-14T01:11:47;0.80;;;0.80;;
20166;SDS011;10243;49.118;8.508;2023-03-14T01:12:08;1.30;;;0.82;;
20166;SDS011;10243;49.118;8.508;2023-03-14T01:12:29;1.30;;;0.80;;
20166;SDS011;10243;49.118;8.508;2023-03-14T01:12:49;0.77;;;0.70;;
20166;SDS011;10243;49.118;8.508;2023-03-14T01:13:10;1.50;;;0.65;;
20166;SDS011;10243;49.118;8.508;2023-03-14T01:13:31;1.08;;;0.70;;
20166;SDS011;10243;49.118;8.508;2023-03-14T01:13:52;0.70;;;0.70;;
20166;SDS011;10243;49.118;8.508;2023-03-14T01:14:12;0.97;;;0.70;;
20166;SDS011;10243;49.118;8.508;2023-03-14T01:14:34;0.77;;;0.60;;
20166;SDS011;10243;49.118;8.508;2023-03-14T01:14:56;0.73;;;0.68;;
20166;SDS011;10243;49.118;8.508;2023-03-14T01:15:18;0.60;;;0.60;;
20166;SDS011;10243;49.118;8.508;2023-03-14T01:15:38;1.07;;;0.67;;
20166;SDS011;10243;49.118;8.508;2023-03-14T01:16:00;2.17;;;0.80;;
20166;SDS011;10243;49.118;8.508;2023-03-14T01:16:21;2.83;;;0.70;;
20166;SDS011;10243;49.118;8.508;2023-03-14T01:16:43;0.85;;;0.60;;
20166;SDS011;10243;49.118;8.508;2023-03-14T01:17:03;1.23;;;0.80;;
20166;SDS011;10243;49.118;8.508;2023-03-14T01:17:24;1.70;;;0.80;;
20166;SDS011;10243;49.118;8.508;2023-03-14T01:17:44;1.30;;;0.90;;
20166;SDS011;10243;49.118;8.508;2023-03-14T01:18:06;1.42;;;0.90;;
20166;SDS011;10243;49.118;8.508;2023-03-14T01:18:26;0.95;;;0.82;;
20166;SDS011;10243;49.118;8.508;2023-03-14T01:18:47;1.00;;;0.80;;
20166;SDS011;10243;49.118;8.508;2023-03-14T01:19:08;1.33;;;0.90;;
20166;SDS011;10243;49.118;8.508;2023-03-14T01:19:30;0.90;;;0.90;;
20166;SDS011;10243;49.118;8.508;2023-03-14T01:19:53;0.80;;;0.80;;
20166;SDS011;10243;49.118;8.508;2023-03-14T01:20:15;0.80;;;0.70;;
20166;SDS011;10243;49.118;8.508;2023-03-14T01:20:36;0.90;;;0.80;;
20166;SDS011;10243;49.118;8.508;2023-03-14T01:20:57;1.20;;;0.70;;
20166;SDS011;10243;49.118;8.508;2023-03-14T01:21:19;3.13;;;0.80;;
20166;SDS011;10243;49.118;8.508;2023-03-14T01:21:40;2.80;;;0.85;;
20166;SDS011;10243;49.118;8.508;2023-03-14T01:22:00;0.93;;;0.80;;
20166;SDS011;10243;49.118;8.508;2023-03-14T01:22:20;1.38;;;0.80;;
20166;SDS011;10243;49.118;8.508;2023-03-14T01:22:41;0.93;;;0.70;;
20166;SDS011;10243;49.118;8.508;2023-03-14T01:23:03;0.70;;;0.70;;
20166;SDS011;10243;49.118;8.508;2023-03-14T01:23:23;0.73;;;0.70;;
20166;SDS011;10243;49.118;8.508;2023-03-14T01:23:44;1.10;;;0.70;;
20166;SDS011;10243;49.118;8.508;2023-03-14T01:24:05;1.10;;;0.70;;
20166;SDS011;10243;49.118;8.508;2023-03-14T01:24:27;1.42;;;0.80;;
20166;SDS011;10243;49.118;8.508;2023-03-14T01:24:47;1.70;;;0.80;;
20166;SDS011;10243;49.118;8.508;2023-03-14T01:25:08;1.13;;;0.68;;
20166;SDS011;10243;49.118;8.508;2023-03-14T01:25:29;1.50;;;0.80;;
20166;SDS011;10243;49.118;8.508;2023-03-14T01:25:50;2.22;;;0.80;;
20166;SDS011;10243;49.118;8.508;2023-03-14T01:26:13;1.13;;;0.80;;
20166;SDS011;10243;49.118;8.508;2023-03-14T01:26:34;1.08;;;0.80;;
20166;SDS011;10243;49.118;8.508;2023-03-14T01:26:55;1.08;;;0.90;;
20166;SDS011;10243;49.118;8.508;2023-03-14T01:27:18;1.55;;;0.90;;
20166;SDS011;10243;49.118;8.508;2023-03-14T01:27:39;0.68;;;0.68;;
20166;SDS011;10243;49.118;8.508;2023-03-14T01:27:59;1.03;;;0.70;;
20166;SDS011;10243;49.118;8.508;2023-03-14T01:28:21;1.48;;;0.90;;
20166;SDS011;10243;49.118;8.508;2023-03-14T01:28:42;1.27;;;0.93;;
20166;SDS011;10243;49.118;8.508;2023-03-14T01:29:04;0.77;;;0.70;;
20166;SDS011;10243;49.118;8.508;2023-03-14T01:29:26;1.20;;;0.80;;
20166;SDS011;10243;49.118;8.508;2023-03-14T01:29:48;1.15;;;0.90;;
20166;SDS011;10243;49.118;8.508;2023-03-14T01:30:10;0.77;;;0.77;;
20166;SDS011;10243;49.118;8.508;2023-03-14T01:30:32;0.70;;;0.63;;
20166;SDS011;10243;49.118;8.508;2023-03-14T01:30:53;2.08;;;0.70;;
20166;SDS011;10243;49.118;8.508;2023-03-14T01:31:14;1.13;;;0.70;;
20166;SDS011;10243;49.118;8.508;2023-03-14T01:31:34;1.08;;;0.70;;
20166;SDS011;10243;49.118;8.508;2023-03-14T01:31:56;1.05;;;0.80;;
20166;SDS011;10243;49.118;8.508;2023-03-14T01:32:16;1.50;;;0.80;;
20166;SDS011;10243;49.118;8.508;2023-03-14T01:32:37;2.87;;;0.80;;
20166;SDS011;10243;49.118;8.508;2023-03-14T01:32:58;0.60;;;0.60;;
20166;SDS011;10243;49.118;8.508;2023-03-14T01:33:19;1.17;;;0.90;;
20166;SDS011;10243;49.118;8.508;2023-03-14T01:33:40;1.00;;;0.90;;
20166;SDS011;10243;49.118;8.508;2023-03-14T01:34:02;0.70;;;0.70;;
20166;SDS011;10243;49.118;8.508;2023-03-14T01:34:22;0.77;;;0.70;;
20166;SDS011;10243;49.118;8.508;2023-03-14T01:34:44;1.25;;;0.70;;
20166;SDS011;10243;49.118;8.508;2023-03-14T01:35:04;1.10;;;0.80;;
20166;SDS011;10243;49.118;8.508;2023-03-14T01:35:25;1.95;;;0.90;;
20166;SDS011;10243;49.118;8.508;2023-03-14T01:35:45;1.58;;;0.90;;
20166;SDS011;10243;49.118;8.508;2023-03-14T01:36:06;1.17;;;0.80;;
20166;SDS011;10243;49.118;8.508;2023-03-14T01:36:27;1.20;;;0.90;;
20166;SDS011;10243;49.118;8.508;2023-03-14T01:36:48;0.85;;;0.70;;
20166;SDS011;10243;49.118;8.508;2023-03-14T01:37:09;2.57;;;0.90;;
20166;SDS011;10243;49.118;8.508;2023-03-14T01:37:31;1.73;;;0.90;;
20166;SDS011;10243;49.118;8.508;2023-03-14T01:37:52;1.07;;;0.80;;
20166;SDS011;10243;49.118;8.508;2023-03-14T01:38:16;1.55;;;0.90;;
20166;SDS011;10243;49.118;8.508;2023-03-14T01:38:37;2.38;;;0.90;;
20166;SDS011;10243;49.118;8.508;2023-03-14T01:38:58;1.88;;;0.70;;
20166;SDS011;10243;49.118;8.508;2023-03-14T01:39:18;1.83;;;0.80;;
20166;SDS011;10243;49.118;8.508;2023-03-14T01:39:40;0.90;;;0.80;;
20166;SDS011;10243;49.118;8.508;2023-03-14T01:40:00;1.23;;;0.80;;
20166;SDS011;10243;49.118;8.508;2023-03-14T01:40:21;1.50;;;0.70;;
20166;SDS011;10243;49.118;8.508;2023-03-14T01:40:42;1.60;;;0.80;;
20166;SDS011;10243;49.118;8.508;2023-03-14T01:41:03;2.42;;;1.00;;
20166;SDS011;10243;49.118;8.508;2023-03-14T01:41:24;2.03;;;1.00;;
20166;SDS011;10243;49.118;8.508;2023-03-14T01:41:48;1.70;;;0.90;;
20166;SDS011;10243;49.118;8.508;2023-03-14T01:42:08;2.20;;;0.90;;
20166;SDS011;10243;49.118;8.508;2023-03-14T01:42:29;1.53;;;0.90;;
20166;SDS011;10243;49.118;8.508;2023-03-14T01:42:53;1.70;;;0.80;;
20166;SDS011;10243;49.118;8.508;2023-03-14T01:43:15;3.03;;;0.90;;
20166;SDS011;10243;49.118;8.508;2023-03-14T01:43:36;2.20;;;1.20;;
20166;SDS011;10243;49.118;8.508;2023-03-14T01:43:57;1.85;;;1.10;;
20166;SDS011;10243;49.118;8.508;2023-03-14T01:44:18;2.07;;;0.70;;
20166;SDS011;10243;49.118;8.508;2023-03-14T01:44:49;1.95;;;0.88;;
20166;SDS011;10243;49.118;8.508;2023-03-14T01:46:41;2.20;;;1.00;;
20166;SDS011;10243;49.118;8.508;2023-03-14T01:47:04;1.45;;;1.02;;
20166;SDS011;10243;49.118;8.508;2023-03-14T01:47:26;2.33;;;1.00;;
20166;SDS011;10243;49.118;8.508;2023-03-14T01:47:47;2.33;;;1.00;;
20166;SDS011;10243;49.118;8.508;2023-03-14T01:48:07;2.50;;;1.00;;
20166;SDS011;10243;49.118;8.508;2023-03-14T01:48:28;2.28;;;1.10;;
20166;SDS011;10243;49.118;8.508;2023-03-14T01:48:55;3.70;;;1.00;;
20166;SDS011;10243;49.118;8.508;2023-03-14T01:49:20;2.53;;;1.08;;
20166;SDS011;10243;49.118;8.508;2023-03-14T01:49:48;2.92;;;1.10;;
20166;SDS011;10243;49.118;8.508;2023-03-14T01:50:11;1.40;;;1.10;;
20166;SDS011;10243;49.118;8.508;2023-03-14T01:50:33;3.47;;;1.00;;
20166;SDS011;10243;49.118;8.508;2023-03-14T01:50:53;2.23;;;0.80;;
20166;SDS011;10243;49.118;8.508;2023-03-14T01:51:14;2.00;;;0.90;;
20166;SDS011;10243;49.118;8.508;2023-03-14T01:51:38;2.10;;;1.05;;
20166;SDS011;10243;49.118;8.508;2023-03-14T01:52:02;1.92;;;0.90;;
20166;SDS011;10243;49.118;8.508;2023-03-14T01:52:24;3.03;;;1.00;;
20166;SDS011;10243;49.118;8.508;2023-03-14T01:52:46;1.92;;;1.00;;
20166;SDS011;10243;49.118;8.508;2023-03-14T01:53:07;2.45;;;0.90;;
20166;SDS011;10243;49.118;8.508;2023-03-14T01:53:28;1.45;;;0.90;;
20166;SDS011;10243;49.118;8.508;2023-03-14T01:53:49;1.48;;;0.90;;
20166;SDS011;10243;49.118;8.508;2023-03-14T01:54:12;2.28;;;1.00;;
20166;SDS011;10243;49.118;8.508;2023-03-14T01:54:35;2.55;;;1.00;;
20166;SDS011;10243;49.118;8.508;2023-03-14T01:54:58;1.83;;;0.90;;
20166;SDS011;10243;49.118;8.508;2023-03-14T01:55:21;2.17;;;0.90;;
20166;SDS011;10243;49.118;8.508;2023-03-14T01:55:43;2.75;;;0.90;;
20166;SDS011;10243;49.118;8.508;2023-03-14T01:56:04;2.22;;;1.00;;
20166;SDS011;10243;49.118;8.508;2023-03-14T01:56:25;2.35;;;1.00;;
20166;SDS011;10243;49.118;8.508;2023-03-14T01:56:48;1.08;;;0.90;;
20166;SDS011;10243;49.118;8.508;2023-03-14T01:57:11;1.60;;;1.00;;
20166;SDS011;10243;49.118;8.508;2023-03-14T01:57:33;2.97;;;1.02;;
20166;SDS011;10243;49.118;8.508;2023-03-14T01:57:56;3.50;;;1.08;;
20166;SDS011;10243;49.118;8.508;2023-03-14T01:58:17;2.30;;;1.02;;
20166;SDS011;10243;49.118;8.508;2023-03-14T01:58:40;2.33;;;0.90;;
20166;SDS011;10243;49.118;8.508;2023-03-14T01:59:03;2.40;;;1.05;;
20166;SDS011;10243;49.118;8.508;2023-03-14T01:59:24;2.70;;;1.13;;
20166;SDS011;10243;49.118;8.508;2023-03-14T01:59:48;1.08;;;0.95;;
20166;SDS011;10243;49.118;8.508;2023-03-14T02:00:13;2.03;;;0.93;;
20166;SDS011;10243;49.118;8.508;2023-03-14T02:00:34;3.65;;;1.10;;
20166;SDS011;10243;49.118;8.508;2023-03-14T02:00:54;3.17;;;0.98;;
20166;SDS011;10243;49.118;8.508;2023-03-14T02:01:16;1.00;;;0.82;;
20166;SDS011;10243;49.118;8.508;2023-03-14T02:01:39;2.75;;;1.10;;
20166;SDS011;10243;49.118;8.508;2023-03-14T02:02:02;2.97;;;1.15;;
20166;SDS011;10243;49.118;8.508;2023-03-14T02:02:26;3.13;;;0.93;;
20166;SDS011;10243;49.118;8.508;2023-03-14T02:02:49;4.15;;;1.00;;
20166;SDS011;10243;49.118;8.508;2023-03-14T02:03:13;3.83;;;1.15;;
20166;SDS011;10243;49.118;8.508;2023-03-14T02:03:36;2.33;;;1.20;;
20166;SDS011;10243;49.118;8.508;2023-03-14T02:03:59;1.73;;;0.90;;
20166;SDS011;10243;49.118;8.508;2023-03-14T02:04:22;1.80;;;1.00;;
20166;SDS011;10243;49.118;8.508;2023-03-14T02:04:44;1.33;;;1.00;;
20166;SDS011;10243;49.118;8.508;2023-03-14T02:05:07;2.00;;;0.98;;
20166;SDS011;10243;49.118;8.508;2023-03-14T02:05:30;2.42;;;1.10;;
20166;SDS011;10243;49.118;8.508;2023-03-14T02:05:55;2.13;;;1.05;;
20166;SDS011;10243;49.118;8.508;2023-03-14T02:06:17;0.95;;;0.85;;
20166;SDS011;10243;49.118;8.508;2023-03-14T02:06:47;1.63;;;1.02;;
20166;SDS011;10243;49.118;8.508;2023-03-14T02:07:10;2.05;;;1.00;;
20166;SDS011;10243;49.118;8.508;2023-03-14T02:07:39;1.27;;;0.88;;
20166;SDS011;10243;49.118;8.508;2023-03-14T02:08:08;3.05;;;1.00;;
20166;SDS011;10243;49.118;8.508;2023-03-14T02:08:36;4.53;;;1.10;;
20166;SDS011;10243;49.118;8.508;2023-03-14T02:09:00;3.10;;;0.95;;
20166;SDS011;10243;49.118;8.508;2023-03-14T02:09:27;1.42;;;1.17;;
20166;SDS011;10243;49.118;8.508;2023-03-14T02:09:48;1.73;;;1.08;;
20166;SDS011;10243;49.118;8.508;2023-03-14T02:10:15;1.60;;;0.90;;
20166;SDS011;10243;49.118;8.508;2023-03-14T02:10:39;2.75;;;1.00;;
20166;SDS011;10243;49.118;8.508;2023-03-14T02:11:01;2.25;;;0.90;;
20166;SDS011;10243;49.118;8.508;2023-03-14T02:11:37;1.38;;;1.00;;